Time,TemperatureF,DewpointF,PressureIn,WindDirection,WindDirectionDegrees,WindSpeedMPH,WindSpeedGustMPH,Humidity,HourlyPrecipIn,Conditions,Clouds,dailyrainin,SoftwareType,DateUTC
2013-06-15 00:03:00,60.4,55.9,30.03,NE,45,0.0,0.0,85,0.00,,,0.00,WUHU21623XXSP,2013-06-15 05:03:00,
2013-06-15 00:08:00,60.4,55.9,30.03,NE,45,0.0,0.0,85,0.00,,,0.00,WUHU21623XXSP,2013-06-15 05:08:00,
2013-06-15 00:13:00,60.3,55.8,30.03,NE,45,0.0,0.0,85,0.00,,,0.00,WUHU21623XXSP,2013-06-15 05:13:00,
2013-06-15 00:18:00,60.4,55.9,30.02,NE,45,0.0,0.0,85,0.00,,,0.00,WUHU21623XXSP,2013-06-15 05:18:00,
2013-06-15 00:23:00,60.4,55.9,30.03,NE,45,0.0,0.0,85,0.00,,,0.00,WUHU21623XXSP,2013-06-15 05:23:00,
2013-06-15 00:28:00,60.3,55.8,30.03,NE,45,0.0,0.0,85,0.00,,,0.00,WUHU21623XXSP,2013-06-15 05:28:00,
2013-06-15 00:33:00,60.1,55.6,30.03,NE,45,0.0,0.0,85,0.00,,,0.00,WUHU21623XXSP,2013-06-15 05:33:00,
2013-06-15 00:38:00,60.1,55.9,30.03,NE,45,0.0,0.0,86,0.00,,,0.00,WUHU21623XXSP,2013-06-15 05:38:00,
2013-06-15 00:43:00,60.1,55.9,30.03,NE,45,0.0,0.0,86,0.00,,,0.00,WUHU21623XXSP,2013-06-15 05:43:00,
2013-06-15 00:48:00,60.1,55.9,30.03,NE,45,0.0,0.0,86,0.00,,,0.00,WUHU21623XXSP,2013-06-15 05:48:00,
2013-06-15 00:53:00,60.1,55.9,30.03,NE,45,0.0,0.0,86,0.00,,,0.00,WUHU21623XXSP,2013-06-15 05:53:00,
2013-06-15 00:58:00,60.1,55.9,30.04,NE,45,0.0,0.0,86,0.00,,,0.00,WUHU21623XXSP,2013-06-15 05:58:00,
2013-06-15 01:03:00,60.1,55.9,30.04,NE,45,0.0,0.0,86,0.00,,,0.00,WUHU21623XXSP,2013-06-15 06:03:00,
2013-06-15 01:08:00,59.9,55.9,30.04,NE,45,0.0,0.0,86,0.00,,,0.00,WUHU21623XXSP,2013-06-15 06:08:00,
2013-06-15 01:13:00,59.9,55.7,30.04,NE,45,0.0,0.0,86,0.00,,,0.00,WUHU21623XXSP,2013-06-15 06:13:00,
2013-06-15 01:19:00,59.9,55.7,30.04,NE,45,0.0,0.0,86,0.00,,,0.00,WUHU21623XXSP,2013-06-15 06:19:00,
2013-06-15 01:24:00,59.9,55.7,30.04,NE,45,0.0,0.0,86,0.00,,,0.00,WUHU21623XXSP,2013-06-15 06:24:00,
2013-06-15 01:29:00,59.9,55.7,30.04,NE,45,0.0,0.0,86,0.00,,,0.00,WUHU21623XXSP,2013-06-15 06:29:00,
2013-06-15 01:34:00,59.9,55.7,30.04,NE,45,0.0,0.0,86,0.00,,,0.00,WUHU21623XXSP,2013-06-15 06:34:00,
2013-06-15 01:39:00,59.9,55.7,30.04,NE,45,0.0,0.0,86,0.00,,,0.00,WUHU21623XXSP,2013-06-15 06:39:00,
2013-06-15 01:44:00,60.1,56.2,30.04,NE,45,0.0,0.0,87,0.00,,,0.00,WUHU21623XXSP,2013-06-15 06:44:00,
2013-06-15 01:49:00,60.1,56.2,30.04,NE,45,0.0,0.0,87,0.00,,,0.00,WUHU21623XXSP,2013-06-15 06:49:00,
2013-06-15 01:54:00,60.1,56.2,30.04,NE,45,0.0,0.0,87,0.00,,,0.00,WUHU21623XXSP,2013-06-15 06:54:00,
2013-06-15 01:59:00,60.1,56.2,30.04,NE,45,0.0,0.0,87,0.00,,,0.00,WUHU21623XXSP,2013-06-15 06:59:00,
2013-06-15 02:04:00,60.1,56.2,30.04,NE,45,0.0,0.0,87,0.00,,,0.00,WUHU21623XXSP,2013-06-15 07:04:00,
2013-06-15 02:09:00,60.1,56.2,30.03,NE,45,0.0,0.0,87,0.00,,,0.00,WUHU21623XXSP,2013-06-15 07:09:00,
2013-06-15 02:14:00,60.1,56.2,30.03,NE,45,0.0,0.0,87,0.00,,,0.00,WUHU21623XXSP,2013-06-15 07:14:00,
2013-06-15 02:19:00,60.1,56.2,30.03,NE,45,0.0,0.0,87,0.00,,,0.00,WUHU21623XXSP,2013-06-15 07:19:00,
2013-06-15 02:25:00,60.1,56.2,30.03,NE,45,0.0,0.0,87,0.00,,,0.00,WUHU21623XXSP,2013-06-15 07:25:00,
2013-06-15 02:30:00,60.1,56.2,30.03,NE,45,0.0,0.0,87,0.00,,,0.00,WUHU21623XXSP,2013-06-15 07:30:00,
2013-06-15 02:35:00,60.1,56.2,30.03,NE,45,0.0,0.0,87,0.00,,,0.00,WUHU21623XXSP,2013-06-15 07:35:00,
2013-06-15 02:40:00,60.1,56.2,30.03,NE,45,0.0,0.0,87,0.00,,,0.00,WUHU21623XXSP,2013-06-15 07:40:00,
2013-06-15 02:45:00,60.3,56.4,30.03,NE,45,0.0,0.0,87,0.00,,,0.00,WUHU21623XXSP,2013-06-15 07:45:00,
2013-06-15 02:50:00,60.3,56.4,30.02,NE,45,0.0,0.0,87,0.00,,,0.00,WUHU21623XXSP,2013-06-15 07:50:00,
2013-06-15 02:55:00,60.3,56.4,30.02,NE,45,0.0,0.0,87,0.00,,,0.00,WUHU21623XXSP,2013-06-15 07:55:00,
2013-06-15 03:00:00,60.3,56.4,30.02,NE,45,0.0,0.0,87,0.00,,,0.00,WUHU21623XXSP,2013-06-15 08:00:00,
2013-06-15 03:05:00,60.1,56.2,30.02,NE,45,0.0,0.0,87,0.00,,,0.00,WUHU21623XXSP,2013-06-15 08:05:00,
2013-06-15 03:10:00,60.1,56.2,30.01,NE,45,0.0,0.0,87,0.00,,,0.00,WUHU21623XXSP,2013-06-15 08:10:00,
2013-06-15 03:15:00,60.1,56.2,30.01,NE,45,0.0,0.0,87,0.00,,,0.00,WUHU21623XXSP,2013-06-15 08:15:00,
2013-06-15 03:20:00,60.1,56.6,30.01,NE,45,0.0,0.0,88,0.00,,,0.00,WUHU21623XXSP,2013-06-15 08:20:00,
2013-06-15 03:25:00,60.1,56.2,30.01,NE,45,0.0,0.0,87,0.00,,,0.00,WUHU21623XXSP,2013-06-15 08:25:00,
2013-06-15 03:30:00,60.1,56.6,30.01,NE,45,0.0,0.0,88,0.00,,,0.00,WUHU21623XXSP,2013-06-15 08:30:00,
2013-06-15 03:36:00,60.1,56.2,30.01,NE,45,0.0,0.0,87,0.00,,,0.00,WUHU21623XXSP,2013-06-15 08:36:00,
2013-06-15 03:41:00,60.1,56.2,30.02,NE,45,0.0,0.0,87,0.00,,,0.00,WUHU21623XXSP,2013-06-15 08:41:00,
2013-06-15 03:46:00,60.1,56.2,30.03,NE,45,0.0,0.0,87,0.00,,,0.00,WUHU21623XXSP,2013-06-15 08:46:00,
2013-06-15 03:51:00,60.3,56.2,30.03,NE,45,0.0,0.0,87,0.00,,,0.00,WUHU21623XXSP,2013-06-15 08:51:00,
2013-06-15 03:57:00,60.4,56.6,30.03,NE,45,0.0,0.0,87,0.00,,,0.00,WUHU21623XXSP,2013-06-15 08:57:00,
2013-06-15 04:02:00,60.4,56.6,30.03,NE,45,0.0,0.0,87,0.00,,,0.00,WUHU21623XXSP,2013-06-15 09:02:00,
2013-06-15 04:07:00,60.4,56.6,30.03,NE,45,0.0,0.0,87,0.00,,,0.00,WUHU21623XXSP,2013-06-15 09:07:00,
2013-06-15 04:12:00,60.4,56.6,30.04,NE,45,0.0,0.0,87,0.00,,,0.00,WUHU21623XXSP,2013-06-15 09:12:00,
2013-06-15 04:17:00,60.4,56.6,30.03,NE,45,0.0,0.0,87,0.00,,,0.00,WUHU21623XXSP,2013-06-15 09:17:00,
2013-06-15 04:22:00,60.6,57.1,30.03,NE,45,0.0,0.0,88,0.00,,,0.00,WUHU21623XXSP,2013-06-15 09:22:00,
2013-06-15 04:27:00,60.6,56.8,30.03,NE,45,0.0,0.0,87,0.00,,,0.00,WUHU21623XXSP,2013-06-15 09:27:00,
2013-06-15 04:32:00,60.6,56.8,30.04,NE,45,0.0,0.0,87,0.00,,,0.00,WUHU21623XXSP,2013-06-15 09:32:00,
2013-06-15 04:37:00,60.6,56.8,30.04,NE,45,0.0,0.0,87,0.00,,,0.00,WUHU21623XXSP,2013-06-15 09:37:00,
2013-06-15 04:42:00,61.0,57.1,30.05,NE,45,0.0,0.0,87,0.00,,,0.00,WUHU21623XXSP,2013-06-15 09:42:00,
2013-06-15 04:47:00,61.2,57.1,30.05,NE,45,0.0,0.0,87,0.00,,,0.00,WUHU21623XXSP,2013-06-15 09:47:00,
2013-06-15 04:52:00,61.5,57.3,30.06,NE,45,0.0,0.0,86,0.00,,,0.00,WUHU21623XXSP,2013-06-15 09:52:00,
2013-06-15 04:57:00,61.5,57.3,30.06,NE,45,0.0,0.0,86,0.00,,,0.00,WUHU21623XXSP,2013-06-15 09:57:00,
2013-06-15 05:02:00,61.5,57.3,30.06,NE,45,0.0,0.0,86,0.00,,,0.00,WUHU21623XXSP,2013-06-15 10:02:00,
2013-06-15 05:07:00,61.5,57.3,30.06,NE,45,0.0,0.0,86,0.00,,,0.00,WUHU21623XXSP,2013-06-15 10:07:00,
2013-06-15 05:12:00,61.7,57.5,30.06,NE,45,0.0,0.0,86,0.00,,,0.00,WUHU21623XXSP,2013-06-15 10:12:00,
2013-06-15 05:17:00,61.7,57.5,30.06,NE,45,0.0,0.0,86,0.00,,,0.00,WUHU21623XXSP,2013-06-15 10:17:00,
2013-06-15 05:22:00,61.9,57.7,30.06,NE,45,0.0,0.0,86,0.00,,,0.00,WUHU21623XXSP,2013-06-15 10:22:00,
2013-06-15 05:27:00,62.1,57.7,30.06,NE,45,0.0,0.0,86,0.00,,,0.00,WUHU21623XXSP,2013-06-15 10:27:00,
2013-06-15 05:32:00,62.2,58.0,30.06,NE,45,0.0,0.0,86,0.00,,,0.00,WUHU21623XXSP,2013-06-15 10:32:00,
2013-06-15 05:37:00,62.2,58.0,30.06,NE,45,0.0,0.0,86,0.00,,,0.00,WUHU21623XXSP,2013-06-15 10:37:00,
2013-06-15 05:42:00,62.4,58.2,30.06,NE,45,0.0,0.0,86,0.00,,,0.00,WUHU21623XXSP,2013-06-15 10:42:00,
2013-06-15 05:47:00,62.8,58.5,30.06,NE,45,0.0,0.0,86,0.00,,,0.00,WUHU21623XXSP,2013-06-15 10:47:00,
2013-06-15 05:52:00,63.0,58.5,30.06,NE,45,0.0,0.0,86,0.00,,,0.00,WUHU21623XXSP,2013-06-15 10:52:00,
2013-06-15 05:58:00,63.1,58.9,30.05,NE,45,0.0,0.0,86,0.00,,,0.00,WUHU21623XXSP,2013-06-15 10:58:00,
2013-06-15 06:03:00,63.3,59.1,30.05,SE,135,0.0,0.0,86,0.00,,,0.00,WUHU21623XXSP,2013-06-15 11:03:00,
2013-06-15 06:08:00,63.5,59.1,30.05,SE,135,0.0,0.0,86,0.00,,,0.00,WUHU21623XXSP,2013-06-15 11:08:00,
2013-06-15 06:13:00,63.5,59.3,30.05,SE,135,0.0,0.0,86,0.00,,,0.00,WUHU21623XXSP,2013-06-15 11:13:00,
2013-06-15 06:19:00,63.7,59.4,30.05,SE,135,0.0,0.0,86,0.00,,,0.00,WUHU21623XXSP,2013-06-15 11:19:00,
2013-06-15 06:24:00,64.0,60.1,30.05,SE,135,0.0,0.0,87,0.00,,,0.00,WUHU21623XXSP,2013-06-15 11:24:00,
2013-06-15 06:29:00,64.0,60.1,30.05,SE,135,0.0,0.0,87,0.00,,,0.00,WUHU21623XXSP,2013-06-15 11:29:00,
2013-06-15 06:34:00,64.2,60.3,30.05,SE,135,0.0,0.0,87,0.00,,,0.00,WUHU21623XXSP,2013-06-15 11:34:00,
2013-06-15 06:39:00,64.2,60.3,30.04,SE,135,0.0,0.0,87,0.00,,,0.00,WUHU21623XXSP,2013-06-15 11:39:00,
2013-06-15 06:45:00,64.4,60.5,30.04,SE,135,0.0,0.0,87,0.00,,,0.00,WUHU21623XXSP,2013-06-15 11:45:00,
2013-06-15 06:50:00,64.6,60.7,30.04,SE,135,0.0,0.0,87,0.00,,,0.00,WUHU21623XXSP,2013-06-15 11:50:00,
2013-06-15 06:55:00,64.8,60.8,30.04,SE,135,0.0,0.0,87,0.00,,,0.00,WUHU21623XXSP,2013-06-15 11:55:00,
2013-06-15 07:00:00,64.8,60.8,30.04,SE,135,0.0,0.0,87,0.00,,,0.00,WUHU21623XXSP,2013-06-15 12:00:00,
2013-06-15 07:05:00,65.1,61.0,30.03,SE,135,0.0,0.0,87,0.00,,,0.00,WUHU21623XXSP,2013-06-15 12:05:00,
2013-06-15 07:10:00,65.1,61.2,30.03,SE,135,0.0,0.0,87,0.00,,,0.00,WUHU21623XXSP,2013-06-15 12:10:00,
2013-06-15 07:15:00,65.3,61.3,30.03,SE,135,0.0,0.0,87,0.00,,,0.00,WUHU21623XXSP,2013-06-15 12:15:00,
2013-06-15 07:20:00,65.8,61.8,30.03,SE,135,0.0,0.0,87,0.00,,,0.00,WUHU21623XXSP,2013-06-15 12:20:00,
2013-06-15 07:25:00,66.0,61.8,30.03,SE,135,0.0,0.0,87,0.00,,,0.00,WUHU21623XXSP,2013-06-15 12:25:00,
2013-06-15 07:30:00,66.2,62.2,30.03,SE,135,0.0,0.0,87,0.00,,,0.00,WUHU21623XXSP,2013-06-15 12:30:00,
2013-06-15 07:35:00,66.6,62.2,30.02,SE,135,0.0,0.0,86,0.00,,,0.00,WUHU21623XXSP,2013-06-15 12:35:00,
2013-06-15 07:40:00,66.7,62.4,30.02,SE,135,0.0,0.0,85,0.00,,,0.00,WUHU21623XXSP,2013-06-15 12:40:00,
2013-06-15 07:45:00,66.9,61.9,30.02,SSE,157,3.1,3.1,84,0.00,,,0.00,WUHU21623XXSP,2013-06-15 12:45:00,
2013-06-15 07:50:00,67.3,62.3,30.01,SSE,157,3.6,3.6,84,0.00,,,0.00,WUHU21623XXSP,2013-06-15 12:50:00,
2013-06-15 07:55:00,67.6,62.5,30.01,SSE,157,1.1,3.6,84,0.00,,,0.00,WUHU21623XXSP,2013-06-15 12:55:00,
2013-06-15 08:00:00,67.8,62.8,30.01,SSE,157,0.0,1.1,84,0.00,,,0.00,WUHU21623XXSP,2013-06-15 13:00:00,
2013-06-15 08:05:00,68.0,62.5,30.00,SSE,157,0.0,0.0,83,0.00,,,0.00,WUHU21623XXSP,2013-06-15 13:05:00,
2013-06-15 08:10:00,68.2,62.5,30.00,SSE,157,0.0,0.0,82,0.00,,,0.00,WUHU21623XXSP,2013-06-15 13:10:00,
2013-06-15 08:15:00,68.7,63.0,29.99,SSE,157,0.0,0.0,82,0.00,,,0.00,WUHU21623XXSP,2013-06-15 13:15:00,
2013-06-15 08:20:00,69.3,63.2,29.99,SSE,157,0.0,2.9,81,0.00,,,0.00,WUHU21623XXSP,2013-06-15 13:20:00,
2013-06-15 08:25:00,69.8,63.3,29.99,SSE,157,0.2,2.9,80,0.00,,,0.00,WUHU21623XXSP,2013-06-15 13:25:00,
2013-06-15 08:30:00,69.8,63.3,29.99,SSE,157,6.0,6.0,80,0.00,,,0.00,WUHU21623XXSP,2013-06-15 13:30:00,
2013-06-15 08:35:00,70.7,63.3,29.99,SSE,157,7.2,8.1,78,0.00,,,0.00,WUHU21623XXSP,2013-06-15 13:35:00,
2013-06-15 08:40:00,70.5,62.9,29.98,SSE,157,4.3,8.1,77,0.00,,,0.00,WUHU21623XXSP,2013-06-15 13:40:00,
2013-06-15 08:46:00,70.3,62.9,29.99,SSE,157,0.0,4.3,77,0.00,,,0.00,WUHU21623XXSP,2013-06-15 13:46:00,
2013-06-15 08:51:00,70.3,62.3,29.99,SSE,157,0.0,4.3,76,0.00,,,0.00,WUHU21623XXSP,2013-06-15 13:51:00,
2013-06-15 08:56:00,70.3,62.3,30.00,SSE,157,0.0,0.0,76,0.00,,,0.00,WUHU21623XXSP,2013-06-15 13:56:00,
2013-06-15 09:01:00,70.5,62.5,30.01,SSE,157,0.0,0.0,76,0.00,,,0.00,WUHU21623XXSP,2013-06-15 14:01:00,
2013-06-15 09:06:00,70.5,62.5,30.00,SSE,157,0.0,0.0,76,0.00,,,0.00,WUHU21623XXSP,2013-06-15 14:06:00,
2013-06-15 09:11:00,70.5,62.5,29.99,SSE,157,0.0,0.0,76,0.00,,,0.00,WUHU21623XXSP,2013-06-15 14:11:00,
2013-06-15 09:16:00,70.2,62.9,29.98,SSE,157,0.0,0.0,78,0.00,,,0.00,WUHU21623XXSP,2013-06-15 14:16:00,
2013-06-15 09:21:00,70.0,62.7,29.98,SSE,157,0.0,0.0,78,0.00,,,0.00,WUHU21623XXSP,2013-06-15 14:21:00,
2013-06-15 09:26:00,69.8,62.6,29.98,SSE,157,1.3,1.3,78,0.00,,,0.00,WUHU21623XXSP,2013-06-15 14:26:00,
2013-06-15 09:31:00,69.6,62.8,29.97,SE,135,0.0,2.2,80,0.00,,,0.00,WUHU21623XXSP,2013-06-15 14:31:00,
2013-06-15 09:36:00,69.6,63.2,29.98,SE,135,0.0,0.0,80,0.00,,,0.00,WUHU21623XXSP,2013-06-15 14:36:00,
2013-06-15 09:41:00,69.6,63.2,29.98,SSE,157,4.3,4.3,80,0.00,,,0.00,WUHU21623XXSP,2013-06-15 14:41:00,
2013-06-15 09:46:00,70.3,63.9,29.98,SSE,157,2.2,4.3,80,0.00,,,0.00,WUHU21623XXSP,2013-06-15 14:46:00,
2013-06-15 09:51:00,70.9,64.4,29.98,South,180,6.9,6.9,80,0.00,,,0.00,WUHU21623XXSP,2013-06-15 14:51:00,
2013-06-15 09:56:00,71.2,64.8,29.99,SSE,157,2.5,6.9,79,0.00,,,0.00,WUHU21623XXSP,2013-06-15 14:56:00,
2013-06-15 10:01:00,71.4,64.6,29.99,South,180,0.0,3.4,78,0.00,,,0.00,WUHU21623XXSP,2013-06-15 15:01:00,
2013-06-15 10:06:00,71.4,64.6,29.99,South,180,2.9,3.4,79,0.00,,,0.00,WUHU21623XXSP,2013-06-15 15:06:00,
2013-06-15 10:11:00,71.4,64.2,30.00,SW,225,0.0,2.9,78,0.00,,,0.00,WUHU21623XXSP,2013-06-15 15:11:00,
2013-06-15 10:16:00,71.4,64.2,30.00,SSW,202,0.0,0.0,78,0.00,,,0.00,WUHU21623XXSP,2013-06-15 15:16:00,
2013-06-15 10:21:00,71.4,64.2,30.00,SW,225,0.0,0.0,78,0.00,,,0.00,WUHU21623XXSP,2013-06-15 15:21:00,
2013-06-15 10:26:00,71.4,64.6,30.00,South,180,0.0,0.0,79,0.00,,,0.00,WUHU21623XXSP,2013-06-15 15:26:00,
2013-06-15 10:31:00,71.4,64.6,30.00,South,180,0.0,0.0,79,0.00,,,0.00,WUHU21623XXSP,2013-06-15 15:31:00,
2013-06-15 10:36:00,71.8,64.9,30.01,SSW,202,0.0,0.0,79,0.00,,,0.00,WUHU21623XXSP,2013-06-15 15:36:00,
2013-06-15 10:41:00,71.8,64.9,30.01,SSW,202,0.0,0.0,79,0.00,,,0.00,WUHU21623XXSP,2013-06-15 15:41:00,
2013-06-15 10:46:00,72.0,65.1,30.01,SSW,202,0.0,0.0,79,0.00,,,0.00,WUHU21623XXSP,2013-06-15 15:46:00,
2013-06-15 10:51:00,72.1,65.3,30.01,SSW,202,0.0,0.0,79,0.00,,,0.00,WUHU21623XXSP,2013-06-15 15:51:00,
2013-06-15 10:56:00,72.3,65.5,30.01,SSW,202,0.0,0.0,79,0.00,,,0.00,WUHU21623XXSP,2013-06-15 15:56:00,
2013-06-15 11:01:00,72.3,65.1,30.02,SW,225,0.0,0.0,78,0.00,,,0.00,WUHU21623XXSP,2013-06-15 16:01:00,
2013-06-15 11:06:00,72.5,65.3,30.02,SW,225,0.0,0.0,78,0.00,,,0.00,WUHU21623XXSP,2013-06-15 16:06:00,
2013-06-15 11:11:00,72.7,65.8,30.01,SW,225,0.0,0.0,79,0.00,,,0.00,WUHU21623XXSP,2013-06-15 16:11:00,
2013-06-15 11:16:00,72.7,65.8,30.02,SW,225,0.0,0.0,79,0.00,,,0.00,WUHU21623XXSP,2013-06-15 16:16:00,
2013-06-15 11:21:00,72.7,65.8,30.02,SW,225,0.0,0.0,79,0.00,,,0.00,WUHU21623XXSP,2013-06-15 16:21:00,
2013-06-15 11:27:00,72.5,65.6,30.02,SW,225,0.0,0.0,79,0.00,,,0.00,WUHU21623XXSP,2013-06-15 16:27:00,
2013-06-15 11:32:00,72.5,65.6,30.01,SW,225,0.0,0.0,79,0.00,,,0.00,WUHU21623XXSP,2013-06-15 16:32:00,
2013-06-15 11:37:00,72.5,65.6,30.02,SW,225,0.0,0.0,79,0.00,,,0.00,WUHU21623XXSP,2013-06-15 16:37:00,
2013-06-15 11:42:00,72.3,65.5,30.02,SW,225,0.0,0.0,79,0.00,,,0.00,WUHU21623XXSP,2013-06-15 16:42:00,
2013-06-15 11:47:00,72.0,65.5,30.02,SW,225,0.0,0.0,79,0.00,,,0.00,WUHU21623XXSP,2013-06-15 16:47:00,
2013-06-15 11:52:00,71.8,64.9,30.02,SW,225,0.0,0.0,81,0.00,,,0.00,WUHU21623XXSP,2013-06-15 16:52:00,
2013-06-15 11:57:00,71.6,66.0,30.02,SE,135,0.0,0.0,82,0.00,,,0.00,WUHU21623XXSP,2013-06-15 16:57:00,
2013-06-15 12:02:00,72.0,66.5,30.02,SE,135,0.0,0.0,83,0.00,,,0.00,WUHU21623XXSP,2013-06-15 17:02:00,
2013-06-15 12:07:00,72.0,66.2,30.02,ESE,112,0.0,0.0,82,0.00,,,0.00,WUHU21623XXSP,2013-06-15 17:07:00,
2013-06-15 12:12:00,72.0,66.2,30.02,East,90,2.7,2.7,82,0.00,,,0.00,WUHU21623XXSP,2013-06-15 17:12:00,
2013-06-15 12:17:00,71.8,66.0,30.01,East,90,0.0,2.7,82,0.00,,,0.00,WUHU21623XXSP,2013-06-15 17:17:00,
2013-06-15 12:22:00,71.8,66.0,30.01,East,90,0.0,2.5,82,0.00,,,0.00,WUHU21623XXSP,2013-06-15 17:22:00,
2013-06-15 12:28:00,71.4,66.0,30.01,ENE,67,0.7,2.7,83,0.00,,,0.00,WUHU21623XXSP,2013-06-15 17:28:00,
2013-06-15 12:33:00,71.2,65.8,30.01,ENE,67,0.0,5.1,83,0.00,,,0.00,WUHU21623XXSP,2013-06-15 17:33:00,
2013-06-15 12:38:00,71.2,65.8,30.01,ENE,67,0.0,0.2,83,0.00,,,0.00,WUHU21623XXSP,2013-06-15 17:38:00,
2013-06-15 12:43:00,71.1,65.6,30.01,ENE,67,0.0,0.0,84,0.00,,,0.00,WUHU21623XXSP,2013-06-15 17:43:00,
2013-06-15 12:49:00,71.2,66.1,30.01,ENE,67,0.0,0.0,84,0.00,,,0.00,WUHU21623XXSP,2013-06-15 17:49:00,
2013-06-15 12:54:00,71.1,65.9,30.01,ENE,67,0.4,3.4,84,0.00,,,0.00,WUHU21623XXSP,2013-06-15 17:54:00,
2013-06-15 12:59:00,70.5,65.8,30.00,ENE,67,0.0,3.4,85,0.00,,,0.00,WUHU21623XXSP,2013-06-15 17:59:00,
2013-06-15 13:04:00,70.5,65.6,30.00,ENE,67,0.0,0.0,85,0.00,,,0.00,WUHU21623XXSP,2013-06-15 18:04:00,
2013-06-15 13:09:00,70.3,65.6,30.00,East,90,6.5,6.5,85,0.00,,,0.00,WUHU21623XXSP,2013-06-15 18:09:00,
2013-06-15 13:14:00,70.9,65.9,29.99,East,90,6.5,6.5,84,0.00,,,0.00,WUHU21623XXSP,2013-06-15 18:14:00,
2013-06-15 13:19:00,71.4,66.1,29.99,ESE,112,0.0,6.5,84,0.00,,,0.00,WUHU21623XXSP,2013-06-15 18:19:00,
2013-06-15 13:24:00,72.3,66.2,29.98,ESE,112,6.0,6.0,82,0.00,,,0.00,WUHU21623XXSP,2013-06-15 18:24:00,
2013-06-15 13:29:00,73.6,67.8,29.98,SE,135,0.0,6.0,82,0.00,,,0.00,WUHU21623XXSP,2013-06-15 18:29:00,
2013-06-15 13:34:00,74.8,68.5,29.98,SE,135,0.0,6.0,80,0.00,,,0.00,WUHU21623XXSP,2013-06-15 18:34:00,
2013-06-15 13:39:00,75.6,67.9,29.97,SE,135,5.6,5.6,77,0.00,,,0.00,WUHU21623XXSP,2013-06-15 18:39:00,
2013-06-15 13:44:00,75.9,67.4,29.97,SSE,157,9.6,9.6,75,0.00,,,0.00,WUHU21623XXSP,2013-06-15 18:44:00,
2013-06-15 13:49:00,76.5,67.2,29.97,SSE,157,0.0,9.6,73,0.00,,,0.00,WUHU21623XXSP,2013-06-15 18:49:00,
2013-06-15 13:54:00,77.7,67.3,29.98,SE,135,0.0,6.0,71,0.00,,,0.00,WUHU21623XXSP,2013-06-15 18:54:00,
2013-06-15 13:59:00,78.4,67.4,29.98,SSE,157,3.8,5.4,69,0.00,,,0.00,WUHU21623XXSP,2013-06-15 18:59:00,
2013-06-15 14:04:00,78.4,67.0,29.98,SSE,157,6.9,6.9,68,0.00,,,0.00,WUHU21623XXSP,2013-06-15 19:04:00,
2013-06-15 14:09:00,78.6,67.6,29.98,SE,135,0.0,7.8,68,0.00,,,0.00,WUHU21623XXSP,2013-06-15 19:09:00,
2013-06-15 14:14:00,78.6,67.1,29.98,SE,135,0.0,7.8,68,0.00,,,0.00,WUHU21623XXSP,2013-06-15 19:14:00,
2013-06-15 14:20:00,78.4,67.0,29.98,SSE,157,6.9,6.9,68,0.00,,,0.00,WUHU21623XXSP,2013-06-15 19:20:00,
2013-06-15 14:25:00,78.1,66.8,29.98,SSE,157,0.0,6.9,68,0.00,,,0.00,WUHU21623XXSP,2013-06-15 19:25:00,
2013-06-15 14:30:00,78.4,67.0,29.98,SSE,157,7.2,7.2,68,0.00,,,0.00,WUHU21623XXSP,2013-06-15 19:30:00,
2013-06-15 14:35:00,78.6,66.7,29.98,SSE,157,1.6,7.2,67,0.00,,,0.00,WUHU21623XXSP,2013-06-15 19:35:00,
2013-06-15 14:40:00,78.1,66.2,29.98,SSE,157,0.0,6.5,67,0.00,,,0.00,WUHU21623XXSP,2013-06-15 19:40:00,
2013-06-15 14:45:00,77.7,66.3,29.98,SSE,157,0.0,6.5,68,0.00,,,0.00,WUHU21623XXSP,2013-06-15 19:45:00,
2013-06-15 14:50:00,77.7,66.8,29.98,SSE,157,0.0,0.0,69,0.00,,,0.00,WUHU21623XXSP,2013-06-15 19:50:00,
2013-06-15 14:55:00,77.9,66.8,29.98,South,180,0.0,0.0,69,0.00,,,0.00,WUHU21623XXSP,2013-06-15 19:55:00,
2013-06-15 15:00:00,78.4,67.0,29.98,SSE,157,2.0,6.3,68,0.00,,,0.00,WUHU21623XXSP,2013-06-15 20:00:00,
2013-06-15 15:05:00,78.6,67.6,29.98,SSE,157,0.0,6.3,69,0.00,,,0.00,WUHU21623XXSP,2013-06-15 20:05:00,
2013-06-15 15:10:00,79.2,67.7,29.98,SSE,157,0.0,7.8,68,0.00,,,0.00,WUHU21623XXSP,2013-06-15 20:10:00,
2013-06-15 15:15:00,79.7,68.2,29.98,WSW,247,0.0,7.8,68,0.00,,,0.00,WUHU21623XXSP,2013-06-15 20:15:00,
2013-06-15 15:20:00,80.8,68.5,29.97,SSE,157,0.0,0.0,67,0.00,,,0.00,WUHU21623XXSP,2013-06-15 20:20:00,
2013-06-15 15:25:00,80.8,68.5,29.97,SSE,157,0.0,6.9,65,0.00,,,0.00,WUHU21623XXSP,2013-06-15 20:25:00,
2013-06-15 15:30:00,80.4,67.6,29.98,SSE,157,0.0,6.9,65,0.00,,,0.00,WUHU21623XXSP,2013-06-15 20:30:00,
2013-06-15 15:35:00,80.1,67.7,29.97,SSE,157,0.0,0.0,66,0.00,,,0.00,WUHU21623XXSP,2013-06-15 20:35:00,
2013-06-15 15:40:00,80.2,67.8,29.97,SSE,157,0.0,0.0,66,0.00,,,0.00,WUHU21623XXSP,2013-06-15 20:40:00,
2013-06-15 15:45:00,79.9,67.7,29.97,SSE,157,3.4,3.4,66,0.00,,,0.00,WUHU21623XXSP,2013-06-15 20:45:00,
2013-06-15 15:50:00,79.7,67.3,29.97,WSW,247,0.0,3.4,66,0.00,,,0.00,WUHU21623XXSP,2013-06-15 20:50:00,
2013-06-15 15:55:00,80.2,68.5,29.96,SSE,157,0.0,0.0,67,0.00,,,0.00,WUHU21623XXSP,2013-06-15 20:55:00,
2013-06-15 16:00:00,80.4,68.0,29.96,SSE,157,0.0,0.0,66,0.00,,,0.00,WUHU21623XXSP,2013-06-15 21:00:00,
2013-06-15 16:05:00,80.4,68.0,29.96,SSE,157,0.0,0.0,67,0.00,,,0.00,WUHU21623XXSP,2013-06-15 21:05:00,
2013-06-15 16:10:00,80.8,68.8,29.96,WSW,247,0.0,0.0,66,0.00,,,0.00,WUHU21623XXSP,2013-06-15 21:10:00,
2013-06-15 16:15:00,80.8,68.3,29.96,WSW,247,0.0,0.0,66,0.00,,,0.00,WUHU21623XXSP,2013-06-15 21:15:00,
2013-06-15 16:20:00,81.1,68.2,29.95,SSE,157,0.0,0.0,65,0.00,,,0.00,WUHU21623XXSP,2013-06-15 21:20:00,
2013-06-15 16:25:00,81.3,68.2,29.95,SSE,157,0.0,0.0,65,0.00,,,0.00,WUHU21623XXSP,2013-06-15 21:25:00,
2013-06-15 16:30:00,82.0,68.6,29.95,WSW,247,0.0,6.9,64,0.00,,,0.00,WUHU21623XXSP,2013-06-15 21:30:00,
2013-06-15 16:35:00,82.2,68.3,29.94,SW,225,2.9,6.9,63,0.00,,,0.00,WUHU21623XXSP,2013-06-15 21:35:00,
2013-06-15 16:40:00,82.9,68.8,29.94,WSW,247,0.0,4.7,63,0.00,,,0.00,WUHU21623XXSP,2013-06-15 21:40:00,
2013-06-15 16:45:00,83.5,69.1,29.94,WSW,247,0.0,6.5,62,0.00,,,0.00,WUHU21623XXSP,2013-06-15 21:45:00,
2013-06-15 16:51:00,83.5,69.1,29.94,SW,225,0.0,6.5,61,0.00,,,0.00,WUHU21623XXSP,2013-06-15 21:51:00,
2013-06-15 16:56:00,83.5,68.6,29.93,WSW,247,4.9,4.9,61,0.00,,,0.00,WUHU21623XXSP,2013-06-15 21:56:00,
2013-06-15 17:01:00,84.0,69.2,29.93,WSW,247,0.0,4.9,61,0.00,,,0.00,WUHU21623XXSP,2013-06-15 22:01:00,
2013-06-15 17:06:00,84.2,68.2,29.93,WSW,247,0.0,0.0,59,0.00,,,0.00,WUHU21623XXSP,2013-06-15 22:06:00,
2013-06-15 17:11:00,83.8,67.7,29.92,WSW,247,0.0,0.0,58,0.00,,,0.00,WUHU21623XXSP,2013-06-15 22:11:00,
2013-06-15 17:16:00,83.5,68.2,29.92,WSW,247,1.3,1.3,61,0.00,,,0.00,WUHU21623XXSP,2013-06-15 22:16:00,
2013-06-15 17:21:00,83.8,68.5,29.92,WSW,247,0.0,1.3,60,0.00,,,0.00,WUHU21623XXSP,2013-06-15 22:21:00,
2013-06-15 17:26:00,84.0,68.2,29.92,WSW,247,0.0,0.0,59,0.00,,,0.00,WUHU21623XXSP,2013-06-15 22:26:00,
2013-06-15 17:31:00,83.5,67.7,29.92,WSW,247,0.0,0.0,60,0.00,,,0.00,WUHU21623XXSP,2013-06-15 22:31:00,
2013-06-15 17:36:00,83.5,68.2,29.91,WSW,247,0.0,4.9,60,0.00,,,0.00,WUHU21623XXSP,2013-06-15 22:36:00,
2013-06-15 17:41:00,83.5,68.2,29.91,WSW,247,0.0,4.9,60,0.00,,,0.00,WUHU21623XXSP,2013-06-15 22:41:00,
2013-06-15 17:46:00,83.5,68.2,29.90,WSW,247,1.3,1.3,60,0.00,,,0.00,WUHU21623XXSP,2013-06-15 22:46:00,
2013-06-15 17:51:00,83.5,68.2,29.90,WSW,247,0.0,1.3,60,0.00,,,0.00,WUHU21623XXSP,2013-06-15 22:51:00,
2013-06-15 17:56:00,83.5,68.2,29.90,WSW,247,0.0,0.0,60,0.00,,,0.00,WUHU21623XXSP,2013-06-15 22:56:00,
2013-06-15 18:01:00,83.5,68.2,29.90,WSW,247,6.5,6.5,60,0.00,,,0.00,WUHU21623XXSP,2013-06-15 23:01:00,
2013-06-15 18:06:00,83.5,67.7,29.91,WSW,247,7.2,7.2,59,0.00,,,0.00,WUHU21623XXSP,2013-06-15 23:06:00,
2013-06-15 18:11:00,83.5,67.7,29.91,WSW,247,0.0,7.2,59,0.00,,,0.00,WUHU21623XXSP,2013-06-15 23:11:00,
2013-06-15 18:16:00,83.1,67.8,29.90,WSW,247,2.2,2.2,60,0.00,,,0.00,WUHU21623XXSP,2013-06-15 23:16:00,
2013-06-15 18:21:00,83.1,67.8,29.90,WSW,247,2.9,2.9,60,0.00,,,0.00,WUHU21623XXSP,2013-06-15 23:21:00,
2013-06-15 18:26:00,82.6,67.9,29.90,South,180,4.5,4.5,61,0.00,,,0.00,WUHU21623XXSP,2013-06-15 23:26:00,
2013-06-15 18:31:00,82.2,67.7,29.90,SW,225,0.9,4.5,61,0.00,,,0.00,WUHU21623XXSP,2013-06-15 23:31:00,
2013-06-15 18:36:00,82.2,67.4,29.90,WSW,247,0.0,4.5,61,0.00,,,0.00,WUHU21623XXSP,2013-06-15 23:36:00,
2013-06-15 18:41:00,82.2,67.4,29.91,WSW,247,0.0,6.5,61,0.00,,,0.00,WUHU21623XXSP,2013-06-15 23:41:00,
2013-06-15 18:46:00,82.4,67.1,29.90,WSW,247,0.0,6.5,60,0.00,,,0.00,WUHU21623XXSP,2013-06-15 23:46:00,
2013-06-15 18:51:00,82.2,67.4,29.89,WSW,247,0.0,0.9,61,0.00,,,0.00,WUHU21623XXSP,2013-06-15 23:51:00,
2013-06-15 18:56:00,82.2,67.4,29.89,WSW,247,0.0,0.0,61,0.00,,,0.00,WUHU21623XXSP,2013-06-15 23:56:00,
2013-06-15 19:01:00,82.2,67.4,29.89,WSW,247,0.0,2.7,61,0.00,,,0.00,WUHU21623XXSP,2013-06-16 00:01:00,
2013-06-15 19:07:00,82.0,67.2,29.90,WSW,247,0.0,2.7,61,0.00,,,0.00,WUHU21623XXSP,2013-06-16 00:07:00,
2013-06-15 19:12:00,82.2,67.4,29.90,WSW,247,0.0,0.0,61,0.00,,,0.00,WUHU21623XXSP,2013-06-16 00:12:00,
2013-06-15 19:17:00,82.0,67.7,29.90,SW,225,0.0,0.0,62,0.00,,,0.00,WUHU21623XXSP,2013-06-16 00:17:00,
2013-06-15 19:22:00,81.7,67.4,29.90,SSW,202,0.0,0.0,62,0.00,,,0.00,WUHU21623XXSP,2013-06-16 00:22:00,
2013-06-15 19:27:00,81.1,66.9,29.90,SSW,202,0.0,0.0,62,0.00,,,0.00,WUHU21623XXSP,2013-06-16 00:27:00,
2013-06-15 19:32:00,80.4,66.4,29.91,SW,225,0.0,0.0,62,0.00,,,0.00,WUHU21623XXSP,2013-06-16 00:32:00,
2013-06-15 19:37:00,79.7,66.6,29.91,SW,225,0.0,0.0,64,0.00,,,0.00,WUHU21623XXSP,2013-06-16 00:37:00,
2013-06-15 19:42:00,79.3,66.7,29.91,SW,225,0.0,0.0,65,0.00,,,0.00,WUHU21623XXSP,2013-06-16 00:42:00,
2013-06-15 19:47:00,79.2,66.4,29.90,SW,225,0.0,0.0,65,0.00,,,0.00,WUHU21623XXSP,2013-06-16 00:47:00,
2013-06-15 19:52:00,78.6,66.3,29.91,SW,225,0.0,0.0,66,0.00,,,0.00,WUHU21623XXSP,2013-06-16 00:52:00,
2013-06-15 19:57:00,78.6,66.3,29.91,SW,225,0.0,0.0,66,0.00,,,0.00,WUHU21623XXSP,2013-06-16 00:57:00,
2013-06-15 20:02:00,78.4,66.5,29.91,SW,225,0.0,0.0,67,0.00,,,0.00,WUHU21623XXSP,2013-06-16 01:02:00,
2013-06-15 20:07:00,78.1,66.4,29.91,SW,225,0.0,0.0,67,0.00,,,0.00,WUHU21623XXSP,2013-06-16 01:07:00,
2013-06-15 20:12:00,77.9,66.5,29.91,SW,225,0.0,0.0,68,0.00,,,0.00,WUHU21623XXSP,2013-06-16 01:12:00,
2013-06-15 20:17:00,77.5,66.3,29.91,SW,225,0.0,0.0,69,0.00,,,0.00,WUHU21623XXSP,2013-06-16 01:17:00,
2013-06-15 20:22:00,77.2,66.3,29.91,SW,225,0.0,0.0,69,0.00,,,0.00,WUHU21623XXSP,2013-06-16 01:22:00,
2013-06-15 20:27:00,76.8,66.4,29.91,SW,225,0.0,0.0,70,0.00,,,0.00,WUHU21623XXSP,2013-06-16 01:27:00,
2013-06-15 20:32:00,76.5,66.6,29.91,SW,225,0.0,0.0,71,0.00,,,0.00,WUHU21623XXSP,2013-06-16 01:32:00,
2013-06-15 20:37:00,76.1,66.4,29.90,SW,225,0.0,0.0,72,0.00,,,0.00,WUHU21623XXSP,2013-06-16 01:37:00,
2013-06-15 20:42:00,75.9,66.6,29.91,SW,225,0.0,0.0,73,0.00,,,0.00,WUHU21623XXSP,2013-06-16 01:42:00,
2013-06-15 20:47:00,75.7,66.5,29.91,SW,225,0.0,0.0,73,0.00,,,0.00,WUHU21623XXSP,2013-06-16 01:47:00,
2013-06-15 20:52:00,75.6,66.5,29.91,SW,225,0.0,0.0,73,0.00,,,0.00,WUHU21623XXSP,2013-06-16 01:52:00,
2013-06-15 20:57:00,75.6,66.3,29.91,SW,225,0.0,0.0,74,0.00,,,0.00,WUHU21623XXSP,2013-06-16 01:57:00,
2013-06-15 21:02:00,75.4,66.5,29.91,South,180,2.9,2.9,74,0.00,,,0.00,WUHU21623XXSP,2013-06-16 02:02:00,
2013-06-15 21:07:00,75.4,66.5,29.92,South,180,2.9,2.9,74,0.00,,,0.00,WUHU21623XXSP,2013-06-16 02:07:00,
2013-06-15 21:12:00,75.4,66.5,29.92,SSE,157,3.4,3.4,74,0.00,,,0.00,WUHU21623XXSP,2013-06-16 02:12:00,
2013-06-15 21:17:00,75.4,66.5,29.91,SSE,157,6.5,6.5,74,0.00,,,0.00,WUHU21623XXSP,2013-06-16 02:17:00,
2013-06-15 21:22:00,75.0,66.2,29.91,SSE,157,0.0,6.5,74,0.00,,,0.00,WUHU21623XXSP,2013-06-16 02:22:00,
2013-06-15 21:27:00,75.0,66.6,29.91,SSE,157,0.0,6.5,75,0.00,,,0.00,WUHU21623XXSP,2013-06-16 02:27:00,
2013-06-15 21:32:00,74.8,66.4,29.92,South,180,2.5,6.3,75,0.00,,,0.00,WUHU21623XXSP,2013-06-16 02:32:00,
2013-06-15 21:37:00,74.8,66.4,29.92,South,180,0.0,6.3,75,0.00,,,0.00,WUHU21623XXSP,2013-06-16 02:37:00,
2013-06-15 21:42:00,74.8,66.4,29.93,South,180,0.0,6.3,75,0.00,,,0.00,WUHU21623XXSP,2013-06-16 02:42:00,
2013-06-15 21:47:00,74.8,66.4,29.93,SSW,202,0.0,0.0,74,0.00,,,0.00,WUHU21623XXSP,2013-06-16 02:47:00,
2013-06-15 21:52:00,74.8,66.0,29.94,SSW,202,0.0,5.6,74,0.00,,,0.00,WUHU21623XXSP,2013-06-16 02:52:00,
2013-06-15 21:57:00,75.0,66.2,29.94,SSW,202,0.0,5.6,74,0.00,,,0.00,WUHU21623XXSP,2013-06-16 02:57:00,
2013-06-15 22:03:00,75.0,65.8,29.93,SSW,202,5.6,6.7,73,0.00,,,0.00,WUHU21623XXSP,2013-06-16 03:03:00,
2013-06-15 22:08:00,75.0,65.4,29.93,SSW,202,8.7,8.7,72,0.00,,,0.00,WUHU21623XXSP,2013-06-16 03:08:00,
2013-06-15 22:13:00,75.2,65.6,29.93,SSW,202,0.0,8.7,72,0.00,,,0.00,WUHU21623XXSP,2013-06-16 03:13:00,
2013-06-15 22:18:00,75.0,65.4,29.93,SSW,202,6.9,8.7,73,0.00,,,0.00,WUHU21623XXSP,2013-06-16 03:18:00,
2013-06-15 22:23:00,75.0,65.8,29.93,SSW,202,0.0,6.9,73,0.00,,,0.00,WUHU21623XXSP,2013-06-16 03:23:00,
2013-06-15 22:28:00,75.0,65.8,29.92,WSW,247,0.0,6.9,73,0.00,,,0.00,WUHU21623XXSP,2013-06-16 03:28:00,
2013-06-15 22:33:00,74.8,65.6,29.93,WSW,247,0.0,0.0,73,0.00,,,0.00,WUHU21623XXSP,2013-06-16 03:33:00,
2013-06-15 22:38:00,74.8,66.0,29.92,SW,225,0.0,0.0,74,0.00,,,0.00,WUHU21623XXSP,2013-06-16 03:38:00,
2013-06-15 22:43:00,74.8,66.0,29.92,WSW,247,0.0,6.9,74,0.00,,,0.00,WUHU21623XXSP,2013-06-16 03:43:00,
2013-06-15 22:48:00,74.5,65.7,29.92,SW,225,0.0,6.9,74,0.00,,,0.00,WUHU21623XXSP,2013-06-16 03:48:00,
2013-06-15 22:53:00,74.5,65.7,29.92,WSW,247,0.0,0.0,74,0.00,,,0.00,WUHU21623XXSP,2013-06-16 03:53:00,
2013-06-15 22:58:00,74.5,66.1,29.92,SW,225,0.0,0.0,75,0.00,,,0.00,WUHU21623XXSP,2013-06-16 03:58:00,
2013-06-15 23:01:00,74.5,66.1,29.92,SW,225,0.0,0.0,75,0.00,,,0.00,WUHU21623XXSP,2013-06-16 04:01:00,
2013-06-15 23:06:00,74.5,66.1,29.93,SW,225,9.2,9.2,74,0.00,,,0.00,WUHU21623XXSP,2013-06-16 04:06:00,
2013-06-15 23:11:00,74.5,65.7,29.93,WSW,247,0.0,9.2,74,0.00,,,0.00,WUHU21623XXSP,2013-06-16 04:11:00,
2013-06-15 23:16:00,74.5,65.7,29.93,WSW,247,0.0,3.6,75,0.00,,,0.00,WUHU21623XXSP,2013-06-16 04:16:00,
2013-06-15 23:21:00,74.5,66.1,29.93,SW,225,0.0,0.0,75,0.00,,,0.00,WUHU21623XXSP,2013-06-16 04:21:00,
2013-06-15 23:26:00,73.4,66.5,29.94,SW,225,6.7,6.7,79,0.02,,,0.02,WUHU21623XXSP,2013-06-16 04:26:00,
2013-06-15 23:31:00,72.9,66.4,29.93,West,270,6.5,6.7,81,0.02,,,0.02,WUHU21623XXSP,2013-06-16 04:31:00,
2013-06-15 23:36:00,72.3,66.9,29.93,WSW,247,9.4,9.4,82,0.02,,,0.02,WUHU21623XXSP,2013-06-16 04:36:00,
2013-06-15 23:41:00,72.3,67.2,29.93,West,270,0.0,9.4,84,0.02,,,0.02,WUHU21623XXSP,2013-06-16 04:41:00,
2013-06-15 23:46:00,72.1,67.0,29.93,WSW,247,4.3,4.3,85,0.02,,,0.02,WUHU21623XXSP,2013-06-16 04:46:00,
2013-06-15 23:51:00,71.8,67.4,29.93,West,270,7.6,7.6,86,0.04,,,0.04,WUHU21623XXSP,2013-06-16 04:51:00,
2013-06-15 23:56:00,71.4,67.0,29.93,West,270,0.0,7.6,86,0.04,,,0.04,WUHU21623XXSP,2013-06-16 04:56:00,